Hlavní strana
METAR-TAF:

METAR-TAF

Letiště :

Fairfield Municipal Airport

Fairfield, Iowa, Spojené státy americké

zeměpisná šířka: 41-03N, zeměpisná délka: 091-59W, výška: 244 m

Aktuální stav počasí

Zpráva byla vytvořena před 20 minutami, v 10:15 UTC
Severoseverovýchodní vítr 9 kt
Teplota 0°C
Vlhkost vzduchu 100%
Tlak 1011 hPa
Viditelnost: 3.2 km
Zataženo ve výšce 400 ft
kouřmo

METAR: KFFL 241015Z AUTO 02009KT 2SM BR OVC004 M00/00 A2984 RMK A01

Čas: 04:35 (10:35 UTC)


TAF: chybějící

Stav a předpovědi počasí z více než 4 000 letišť (zprávy METAR a TAF).

Červené a žluté tečky na mapě představují dostupné meteorologické stanice.

Když kurzor umístíte na tečku, zobrazí se název stanice.

Pak kliknutím zobrazíte stav a předpověď počasí.

Chcete-li změnit mapu, kliknutím na zelené tlačítko se znaménkem +mapu přiblížíte, kliknutím na zelené tlačítko se znaménkem – mapu oddálíte a kliknutím na zelené šipky přejdete na sousední mapy.


METAR-TAF: